createdAt,value
2019-02-22T00:01:46.745Z,20.03
2019-02-22T00:04:19.567Z,19.57
2019-02-22T00:06:52.637Z,20.17
2019-02-22T00:09:25.721Z,20.87
2019-02-22T00:11:58.793Z,23.43
2019-02-22T00:14:31.885Z,22.33
2019-02-22T00:17:05.737Z,18.90
2019-02-22T00:19:38.571Z,22.13
2019-02-22T00:22:11.697Z,23.43
2019-02-22T00:24:44.577Z,20.60
2019-02-22T00:27:18.870Z,23.60
2019-02-22T00:29:51.827Z,24.23
2019-02-22T00:32:24.919Z,25.93
2019-02-22T00:34:57.627Z,21.57
2019-02-22T00:37:30.333Z,24.43
2019-02-22T00:40:03.123Z,23.73
2019-02-22T00:42:36.394Z,25.57
2019-02-22T00:45:09.170Z,25.07
2019-02-22T00:47:43.315Z,24.87
2019-02-22T00:50:16.224Z,20.93
2019-02-22T00:52:49.023Z,23.60
2019-02-22T00:55:22.044Z,19.97
2019-02-22T00:57:55.287Z,27.40
2019-02-22T01:00:29.399Z,27.03
2019-02-22T01:03:02.295Z,22.97
2019-02-22T01:05:35.294Z,24.27
2019-02-22T01:08:08.190Z,19.10
2019-02-22T01:10:41.199Z,21.07
2019-02-22T01:13:14.469Z,21.70
2019-02-22T01:15:47.425Z,27.13
2019-02-22T01:18:20.443Z,22.57
2019-02-22T01:20:54.690Z,23.23
2019-02-22T01:23:27.769Z,27.93
2019-02-22T01:26:01.227Z,25.30
2019-02-22T01:28:34.441Z,26.17
2019-02-22T01:31:07.460Z,24.90
2019-02-22T01:33:40.523Z,24.03
2019-02-22T01:36:13.923Z,23.63
2019-02-22T01:38:47.411Z,23.27
2019-02-22T01:41:20.230Z,22.37
2019-02-22T01:43:53.166Z,28.10
2019-02-22T01:46:26.210Z,23.30
2019-02-22T01:48:59.245Z,25.90
2019-02-22T01:51:32.653Z,22.00
2019-02-22T01:54:06.028Z,21.20
2019-02-22T01:56:39.711Z,19.07
2019-02-22T01:59:12.672Z,23.00
2019-02-22T02:01:45.819Z,23.83
2019-02-22T02:04:18.683Z,23.37
2019-02-22T02:06:51.869Z,23.10
2019-02-22T02:09:25.308Z,27.33
2019-02-22T02:11:58.365Z,23.63
2019-02-22T02:14:31.294Z,22.30
2019-02-22T02:17:04.151Z,23.23
2019-02-22T02:19:37.023Z,20.90
2019-02-22T02:22:09.863Z,22.77
2019-02-22T02:24:42.970Z,20.07
2019-02-22T02:27:15.785Z,22.00
2019-02-22T02:29:48.844Z,24.20
2019-02-22T02:32:21.878Z,23.83
2019-02-22T02:34:54.622Z,26.20
2019-02-22T02:37:27.625Z,21.03
2019-02-22T02:40:00.673Z,23.07
2019-02-22T02:42:33.664Z,25.60
2019-02-22T02:45:06.983Z,23.73
2019-02-22T02:47:40.186Z,21.93
2019-02-22T02:50:18.324Z,24.83
2019-02-22T02:52:51.394Z,24.17
2019-02-22T02:55:33.244Z,26.97
2019-02-22T02:58:06.015Z,27.13
2019-02-22T03:00:39.307Z,22.93
2019-02-22T03:03:12.223Z,23.97
2019-02-22T03:06:10.159Z,23.77
2019-02-22T03:08:44.869Z,24.70
2019-02-22T03:11:20.978Z,23.17
2019-02-22T03:13:52.263Z,22.43
2019-02-22T03:16:25.229Z,23.17
2019-02-22T03:18:58.325Z,22.43
2019-02-22T03:21:31.243Z,30.10
2019-02-22T03:24:05.538Z,24.20
2019-02-22T03:26:38.426Z,29.47
2019-02-22T03:29:11.615Z,19.77
2019-02-22T03:31:44.978Z,25.63
2019-02-22T03:34:18.006Z,20.50
2019-02-22T03:36:50.997Z,34.73
2019-02-22T03:39:23.995Z,24.63
2019-02-22T03:41:57.101Z,21.40
2019-02-22T03:44:30.158Z,21.50
2019-02-22T03:47:03.674Z,26.43
2019-02-22T03:49:36.675Z,20.27
2019-02-22T03:52:31.610Z,21.83
2019-02-22T03:55:05.490Z,23.40
2019-02-22T03:57:38.498Z,22.03
2019-02-22T04:00:11.910Z,28.03
2019-02-22T04:02:44.822Z,19.77
2019-02-22T04:05:17.736Z,27.53
2019-02-22T04:07:51.924Z,22.83
2019-02-22T04:10:24.909Z,24.97
2019-02-22T04:12:57.929Z,21.93
2019-02-22T04:15:30.853Z,23.60
2019-02-22T04:18:03.924Z,24.17
2019-02-22T04:20:36.863Z,26.73
2019-02-22T04:23:10.427Z,28.47
2019-02-22T04:25:43.449Z,23.93
2019-02-22T04:28:17.649Z,27.03
2019-02-22T04:30:51.109Z,23.93
2019-02-22T04:33:24.007Z,22.27
2019-02-22T04:35:57.037Z,28.80
2019-02-22T04:38:33.036Z,34.27
2019-02-22T04:41:05.841Z,26.90
2019-02-22T04:43:38.918Z,23.60
2019-02-22T04:46:11.790Z,29.90
2019-02-22T04:48:45.030Z,27.23
2019-02-22T04:51:18.676Z,24.57
2019-02-22T04:53:51.983Z,28.23
2019-02-22T04:56:25.330Z,33.17
2019-02-22T04:58:58.058Z,32.87
2019-02-22T05:01:30.937Z,26.00
2019-02-22T05:04:04.053Z,22.83
2019-02-22T05:06:37.249Z,25.03
2019-02-22T05:09:11.413Z,22.57
2019-02-22T05:11:45.712Z,28.47
2019-02-22T05:14:18.858Z,28.07
2019-02-22T05:16:51.859Z,28.47
2019-02-22T05:19:25.423Z,31.97
2019-02-22T05:21:58.645Z,33.03
2019-02-22T05:24:31.715Z,29.23
2019-02-22T05:27:05.375Z,25.40
2019-02-22T05:29:38.503Z,23.03
2019-02-22T05:32:11.730Z,27.37
2019-02-22T05:34:44.598Z,23.70
2019-02-22T05:37:17.856Z,28.10
2019-02-22T05:39:51.324Z,26.97
2019-02-22T05:42:24.755Z,44.77
2019-02-22T05:44:57.914Z,30.83
2019-02-22T05:47:31.170Z,51.23
2019-02-22T05:50:04.404Z,90.83
2019-02-22T05:52:37.879Z,82.50
2019-02-22T05:55:11.363Z,46.33
2019-02-22T05:57:44.470Z,37.00
2019-02-22T06:00:18.638Z,32.50
2019-02-22T06:02:51.881Z,31.97
2019-02-22T06:05:25.373Z,42.47
2019-02-22T06:07:58.445Z,34.93
2019-02-22T06:10:31.858Z,39.93
2019-02-22T06:13:04.875Z,38.17
2019-02-22T06:15:38.057Z,53.67
2019-02-22T06:18:10.963Z,33.57
2019-02-22T06:20:44.203Z,32.77
2019-02-22T06:23:17.346Z,31.30
2019-02-22T06:25:50.032Z,33.27
2019-02-22T06:28:23.179Z,29.47
2019-02-22T06:30:56.097Z,31.97
2019-02-22T06:33:29.214Z,26.23
2019-02-22T06:36:02.333Z,29.17
2019-02-22T06:38:37.474Z,22.47
2019-02-22T06:41:10.596Z,27.23
2019-02-22T06:43:43.649Z,23.00
2019-02-22T06:46:18.245Z,35.73
2019-02-22T06:48:52.336Z,36.73
2019-02-22T06:51:25.318Z,29.83
2019-02-22T06:53:58.575Z,27.70
2019-02-22T06:56:31.393Z,30.73
2019-02-22T06:59:04.449Z,24.13
2019-02-22T07:01:37.588Z,28.47
2019-02-22T07:04:10.926Z,31.13
2019-02-22T07:06:44.085Z,27.97
2019-02-22T07:09:17.260Z,29.73
2019-02-22T07:11:58.734Z,37.20
2019-02-22T07:14:33.228Z,40.73
2019-02-22T07:17:06.871Z,32.57
2019-02-22T07:19:40.152Z,40.93
2019-02-22T07:22:13.489Z,38.57
2019-02-22T07:24:47.114Z,36.27
2019-02-22T07:27:20.692Z,28.80
2019-02-22T07:29:54.931Z,23.10
2019-02-22T07:32:28.278Z,26.37
2019-02-22T07:35:01.799Z,36.13
2019-02-22T07:37:35.409Z,51.50
2019-02-22T07:40:08.947Z,90.97
2019-02-22T07:42:42.416Z,56.87
2019-02-22T07:45:16.269Z,27.47
2019-02-22T07:47:52.717Z,31.20
2019-02-22T07:50:26.323Z,38.80
2019-02-22T07:52:59.623Z,27.37
2019-02-22T07:55:32.599Z,32.97
2019-02-22T07:58:05.598Z,32.17
2019-02-22T08:00:38.700Z,33.30
2019-02-22T08:03:11.686Z,36.63
2019-02-22T08:05:44.963Z,27.37
2019-02-22T08:08:18.259Z,29.70
2019-02-22T08:10:51.672Z,32.43
2019-02-22T08:13:24.699Z,29.97
2019-02-22T08:15:58.153Z,26.60
2019-02-22T08:18:31.569Z,30.87
2019-02-22T08:21:05.050Z,25.43
2019-02-22T08:23:38.328Z,26.47
2019-02-22T08:26:12.800Z,24.73
2019-02-22T08:28:46.257Z,24.23
2019-02-22T08:31:19.548Z,27.37
2019-02-22T08:33:52.709Z,28.13
2019-02-22T08:36:26.274Z,33.07
2019-02-22T08:38:59.578Z,41.10
2019-02-22T08:41:32.825Z,33.73
2019-02-22T08:44:06.064Z,27.07
2019-02-22T08:46:39.223Z,31.40
2019-02-22T08:49:12.293Z,26.03
2019-02-22T08:51:45.485Z,24.77
2019-02-22T08:54:19.182Z,27.53
2019-02-22T08:56:52.117Z,24.97
2019-02-22T08:59:25.546Z,27.60
2019-02-22T09:01:58.719Z,20.40
2019-02-22T09:04:31.793Z,24.67
2019-02-22T09:07:05.063Z,29.67
2019-02-22T09:09:38.422Z,22.87
2019-02-22T09:12:15.063Z,22.70
2019-02-22T09:14:48.330Z,25.50
2019-02-22T09:17:21.953Z,28.27
2019-02-22T09:19:55.105Z,29.27
2019-02-22T09:22:28.716Z,31.50
2019-02-22T09:25:02.141Z,32.17
2019-02-22T09:27:35.993Z,29.63
2019-02-22T09:30:10.502Z,30.03
2019-02-22T09:32:44.218Z,34.57
2019-02-22T09:35:17.760Z,31.90
2019-02-22T09:37:51.224Z,36.60
2019-02-22T09:40:24.275Z,30.60
2019-02-22T09:42:57.334Z,27.20
2019-02-22T09:45:30.603Z,32.23
2019-02-22T09:48:03.943Z,31.47
2019-02-22T09:50:37.186Z,26.10
2019-02-22T09:53:10.567Z,26.77
2019-02-22T09:55:44.060Z,28.73
2019-02-22T09:58:17.185Z,22.37
2019-02-22T10:00:50.830Z,23.20
2019-02-22T10:03:23.945Z,27.60
2019-02-22T10:05:58.007Z,25.00
2019-02-22T10:08:31.429Z,23.57
2019-02-22T10:11:05.183Z,27.10
2019-02-22T10:13:38.267Z,25.87
2019-02-22T10:16:11.315Z,30.80
2019-02-22T10:18:46.408Z,28.97
2019-02-22T10:21:20.582Z,27.20
2019-02-22T10:23:54.345Z,29.60
2019-02-22T10:26:27.658Z,27.80
2019-02-22T10:29:00.806Z,27.47
2019-02-22T10:31:34.219Z,28.43
2019-02-22T10:34:07.820Z,24.17
2019-02-22T10:36:45.146Z,25.63
2019-02-22T10:39:16.050Z,25.30
2019-02-22T10:41:49.069Z,25.07
2019-02-22T10:44:22.310Z,23.50
2019-02-22T10:46:55.337Z,29.67
2019-02-22T10:49:28.611Z,30.27
2019-02-22T10:52:02.022Z,26.93
2019-02-22T10:54:35.298Z,24.80
2019-02-22T10:57:08.622Z,27.10
2019-02-22T10:59:41.834Z,29.80
2019-02-22T11:02:15.047Z,34.70
2019-02-22T11:04:48.299Z,32.13
2019-02-22T11:07:21.408Z,40.53
2019-02-22T11:09:54.972Z,38.83
2019-02-22T11:12:28.177Z,28.13
2019-02-22T11:15:01.238Z,29.90
2019-02-22T11:17:34.594Z,22.53
2019-02-22T11:20:08.735Z,35.33
2019-02-22T11:22:41.929Z,35.57
2019-02-22T11:25:16.650Z,39.60
2019-02-22T11:27:49.678Z,29.27
2019-02-22T11:30:23.030Z,29.70
2019-02-22T11:32:56.639Z,32.33
2019-02-22T11:35:29.773Z,30.13
2019-02-22T11:38:03.405Z,32.03
2019-02-22T11:40:37.740Z,26.53
2019-02-22T11:43:11.400Z,29.20
2019-02-22T11:45:44.648Z,26.33
2019-02-22T11:48:17.752Z,26.37
2019-02-22T11:50:50.673Z,29.17
2019-02-22T11:53:23.700Z,22.03
2019-02-22T11:55:56.791Z,24.27
2019-02-22T11:58:29.885Z,24.00
2019-02-22T12:01:02.951Z,30.37
2019-02-22T12:03:36.106Z,23.57
2019-02-22T12:06:09.246Z,24.10
2019-02-22T12:08:42.243Z,24.27
2019-02-22T12:11:15.388Z,26.63
2019-02-22T12:13:48.541Z,24.50
2019-02-22T12:16:21.374Z,22.50
2019-02-22T12:18:54.363Z,25.97
2019-02-22T12:21:27.521Z,31.93
2019-02-22T12:24:00.925Z,29.70
2019-02-22T12:26:34.160Z,27.63
2019-02-22T12:29:08.577Z,28.47
2019-02-22T12:31:41.598Z,33.07
2019-02-22T12:34:14.492Z,31.73
2019-02-22T12:36:48.022Z,29.17
2019-02-22T12:39:21.213Z,33.07
2019-02-22T12:41:54.330Z,29.70
2019-02-22T12:44:27.571Z,26.77
2019-02-22T12:47:01.190Z,23.23
2019-02-22T12:49:34.169Z,19.03
2019-02-22T12:52:07.318Z,18.67
2019-02-22T12:54:40.516Z,18.67
2019-02-22T12:57:13.513Z,15.93
2019-02-22T12:59:46.478Z,17.40
2019-02-22T13:02:19.517Z,16.30
2019-02-22T13:04:52.934Z,15.17
2019-02-22T13:07:26.312Z,19.63
2019-02-22T13:09:59.461Z,17.40
2019-02-22T13:12:32.797Z,18.20
2019-02-22T13:15:13.583Z,16.53
2019-02-22T13:17:41.380Z,16.43
2019-02-22T13:20:14.340Z,16.87
2019-02-22T13:22:47.650Z,16.50
2019-02-22T13:25:20.837Z,17.60
2019-02-22T13:27:53.908Z,18.17
2019-02-22T13:30:27.111Z,15.23
2019-02-22T13:33:00.298Z,13.53
2019-02-22T13:35:33.273Z,16.97
2019-02-22T13:38:06.361Z,17.17
2019-02-22T13:40:39.570Z,13.67
2019-02-22T13:43:12.544Z,16.83
2019-02-22T13:45:45.546Z,14.97
2019-02-22T13:48:18.570Z,19.50
2019-02-22T13:50:51.425Z,17.93
2019-02-22T13:53:24.324Z,17.30
2019-02-22T13:55:57.222Z,15.97
2019-02-22T13:58:30.168Z,15.97
2019-02-22T14:01:03.556Z,20.60
2019-02-22T14:03:36.678Z,20.40
2019-02-22T14:06:09.707Z,17.23
2019-02-22T14:08:42.954Z,16.67
2019-02-22T14:11:16.343Z,15.93
2019-02-22T14:13:49.406Z,21.93
2019-02-22T14:16:22.731Z,16.17
2019-02-22T14:18:56.176Z,13.20
2019-02-22T14:21:29.341Z,15.53
2019-02-22T14:24:03.145Z,15.50
2019-02-22T14:26:36.320Z,16.50
2019-02-22T14:29:09.391Z,27.27
2019-02-22T14:31:42.436Z,12.63
2019-02-22T14:34:15.281Z,11.90
2019-02-22T14:36:48.483Z,10.93
2019-02-22T14:39:21.484Z,10.87
2019-02-22T14:41:54.424Z,10.20
2019-02-22T14:44:27.489Z,10.60
2019-02-22T14:47:01.163Z,10.43
2019-02-22T14:49:34.436Z,10.90
2019-02-22T14:52:07.338Z,11.50
2019-02-22T14:54:40.371Z,11.03
2019-02-22T14:57:13.396Z,9.67
2019-02-22T14:59:46.147Z,9.00
2019-02-22T15:02:19.238Z,9.90
2019-02-22T15:04:53.193Z,7.83
2019-02-22T15:07:26.727Z,7.90
2019-02-22T15:09:59.934Z,7.20
2019-02-22T15:12:48.884Z,7.13
2019-02-22T15:15:24.242Z,8.13
2019-02-22T15:18:00.877Z,6.23
2019-02-22T15:20:34.007Z,6.70
2019-02-22T15:23:07.631Z,5.73
2019-02-22T15:25:40.671Z,6.57
2019-02-22T15:28:13.904Z,6.10
2019-02-22T15:30:46.789Z,7.90
2019-02-22T15:33:20.646Z,7.07
2019-02-22T15:35:54.015Z,6.33
2019-02-22T15:38:29.714Z,5.90
2019-02-22T15:41:03.117Z,7.20
2019-02-22T15:43:37.486Z,7.03
2019-02-22T15:46:12.406Z,6.50
2019-02-22T15:48:45.773Z,6.10
2019-02-22T15:51:19.401Z,5.57
2019-02-22T15:53:52.781Z,6.27
2019-02-22T15:56:26.004Z,7.30
2019-02-22T15:58:59.091Z,8.27
2019-02-22T16:01:32.651Z,11.23
2019-02-22T16:04:30.795Z,12.40
2019-02-22T16:07:03.823Z,10.20
2019-02-22T16:09:36.688Z,9.23
2019-02-22T16:12:11.535Z,10.57
2019-02-22T16:14:45.008Z,9.07
2019-02-22T16:17:20.612Z,7.40
2019-02-22T16:19:55.553Z,7.00
2019-02-22T16:22:30.607Z,8.00
2019-02-22T16:25:03.783Z,8.80
2019-02-22T16:27:37.579Z,8.33
2019-02-22T16:30:14.545Z,7.83
2019-02-22T16:32:47.805Z,8.87
2019-02-22T16:35:21.196Z,6.53
2019-02-22T16:37:54.802Z,6.10
2019-02-22T16:40:29.139Z,8.00
2019-02-22T16:43:03.098Z,6.17
2019-02-22T16:45:36.801Z,6.00
2019-02-22T16:48:11.434Z,5.60
2019-02-22T16:50:45.333Z,4.70
2019-02-22T16:53:18.799Z,5.27
2019-02-22T16:55:55.879Z,5.33
2019-02-22T16:58:30.654Z,5.17
2019-02-22T17:01:10.807Z,5.30
2019-02-22T17:03:47.442Z,5.43
2019-02-22T17:06:24.455Z,9.37
2019-02-22T17:08:58.681Z,7.93
2019-02-22T17:11:35.390Z,5.27
2019-02-22T17:14:09.361Z,5.40
2019-02-22T17:16:45.746Z,5.30
2019-02-22T17:19:18.603Z,6.00
2019-02-22T17:21:52.649Z,6.03
2019-02-22T17:24:26.053Z,5.23
2019-02-22T17:26:59.779Z,4.90
2019-02-22T17:29:33.655Z,5.03
2019-02-22T17:32:07.155Z,6.13
2019-02-22T17:34:40.683Z,7.33
2019-02-22T17:37:14.394Z,7.23
2019-02-22T17:39:50.438Z,8.27
2019-02-22T17:42:23.567Z,10.03
2019-02-22T17:44:57.411Z,11.50
2019-02-22T17:47:34.291Z,10.13
2019-02-22T17:50:08.584Z,12.07
2019-02-22T17:52:42.397Z,11.90
2019-02-22T17:55:15.980Z,11.50
2019-02-22T17:57:51.074Z,8.67
2019-02-22T18:00:25.385Z,8.90
2019-02-22T18:02:58.659Z,10.33
2019-02-22T18:05:32.267Z,11.80
2019-02-22T18:08:05.360Z,11.17
2019-02-22T18:10:38.689Z,11.20
2019-02-22T18:13:12.274Z,11.67
2019-02-22T18:15:45.464Z,11.67
2019-02-22T18:18:19.183Z,12.27
2019-02-22T18:23:53.634Z,13.03
2019-02-22T18:26:29.921Z,14.20
2019-02-22T18:29:03.119Z,14.10
2019-02-22T18:31:36.430Z,15.23
2019-02-22T18:34:09.967Z,14.40
2019-02-22T18:36:45.414Z,16.17
2019-02-22T18:39:18.969Z,69.73
2019-02-22T18:41:52.716Z,17.13
2019-02-22T18:44:26.345Z,15.27
2019-02-22T18:47:00.058Z,15.27
2019-02-22T18:49:33.655Z,16.83
2019-02-22T18:52:07.206Z,19.73
2019-02-22T18:54:40.931Z,12.97
2019-02-22T18:57:14.219Z,17.00
2019-02-22T18:59:48.482Z,17.23
2019-02-22T19:02:23.729Z,19.43
2019-02-22T19:04:57.592Z,15.70
2019-02-22T19:07:31.653Z,20.90
2019-02-22T19:10:05.484Z,16.00
2019-02-22T19:12:39.656Z,17.80
2019-02-22T19:15:20.261Z,15.30
2019-02-22T19:18:01.027Z,16.97
2019-02-22T19:20:34.971Z,19.67
2019-02-22T19:23:10.016Z,16.90
2019-02-22T19:25:46.319Z,16.87
2019-02-22T19:28:19.842Z,16.07
2019-02-22T19:30:53.854Z,18.60
2019-02-22T19:33:26.903Z,18.60
2019-02-22T19:36:00.665Z,18.23
2019-02-22T19:38:34.168Z,16.90
2019-02-22T19:41:07.791Z,18.37
2019-02-22T19:43:42.712Z,16.23
2019-02-22T19:46:16.286Z,16.33
2019-02-22T19:48:49.535Z,17.47
2019-02-22T19:51:23.372Z,14.60
2019-02-22T19:53:56.612Z,16.50
2019-02-22T19:56:30.317Z,15.70
2019-02-22T19:59:04.251Z,15.70
2019-02-22T20:01:37.903Z,16.47
2019-02-22T20:04:11.549Z,13.20
2019-02-22T20:06:45.016Z,12.93
2019-02-22T20:09:18.450Z,16.27
2019-02-22T20:11:51.762Z,12.40
2019-02-22T20:14:25.009Z,13.73
2019-02-22T20:16:58.948Z,13.50
2019-02-22T20:19:33.782Z,12.03
2019-02-22T20:22:07.463Z,12.20
2019-02-22T20:24:52.221Z,12.37
2019-02-22T20:27:26.413Z,12.37
2019-02-22T20:30:03.790Z,11.77
2019-02-22T20:32:37.419Z,13.40
2019-02-22T20:35:18.158Z,10.90
2019-02-22T20:37:53.093Z,11.23
2019-02-22T20:40:26.166Z,11.77
2019-02-22T20:42:59.898Z,12.90
2019-02-22T20:45:33.506Z,12.27
2019-02-22T20:48:06.991Z,11.10
2019-02-22T20:50:42.920Z,10.73
2019-02-22T20:53:19.649Z,11.50
2019-02-22T20:55:53.043Z,11.00
2019-02-22T20:58:26.915Z,12.20
2019-02-22T21:01:00.659Z,12.03
2019-02-22T21:03:33.940Z,10.97
2019-02-22T21:06:07.446Z,10.07
2019-02-22T21:08:41.354Z,9.70
2019-02-22T21:11:14.760Z,10.63
2019-02-22T21:13:48.236Z,10.63
2019-02-22T21:16:21.467Z,8.73
2019-02-22T21:18:59.436Z,10.00
2019-02-22T21:21:32.654Z,8.47
2019-02-22T21:24:05.968Z,10.23
2019-02-22T21:26:39.581Z,8.73
2019-02-22T21:29:13.207Z,9.00
2019-02-22T21:31:47.072Z,8.10
2019-02-22T21:34:19.968Z,9.63
2019-02-22T21:36:53.090Z,7.90
2019-02-22T21:39:26.690Z,11.00
2019-02-22T21:41:59.988Z,15.70
2019-02-22T21:44:33.680Z,11.10
2019-02-22T21:47:07.020Z,13.07
2019-02-22T21:49:40.198Z,13.37
2019-02-22T21:52:13.128Z,8.17
2019-02-22T21:54:46.169Z,9.63
2019-02-22T21:57:19.442Z,7.50
2019-02-22T21:59:52.319Z,7.93
2019-02-22T22:02:25.839Z,6.97
2019-02-22T22:04:59.564Z,7.47
2019-02-22T22:07:32.719Z,7.17
2019-02-22T22:10:06.058Z,6.33
2019-02-22T22:12:39.042Z,7.23
2019-02-22T22:15:12.917Z,8.17
2019-02-22T22:17:45.969Z,7.57
2019-02-22T22:20:19.235Z,7.77
2019-02-22T22:22:52.257Z,8.07
2019-02-22T22:25:25.422Z,8.07
2019-02-22T22:27:58.571Z,9.00
2019-02-22T22:30:32.373Z,7.77
2019-02-22T22:33:05.608Z,8.50
2019-02-22T22:35:38.880Z,10.27
2019-02-22T22:38:12.925Z,11.33
2019-02-22T22:40:45.714Z,8.77
2019-02-22T22:43:18.471Z,6.07
2019-02-22T22:45:51.930Z,4.43
2019-02-22T22:48:24.919Z,5.93
2019-02-22T22:50:58.092Z,4.80
2019-02-22T22:53:31.029Z,4.80
2019-02-22T22:56:04.067Z,5.37
2019-02-22T22:58:37.411Z,5.73
2019-02-22T23:01:25.753Z,5.57
2019-02-22T23:03:58.717Z,6.00
2019-02-22T23:06:51.804Z,6.27
2019-02-22T23:09:24.973Z,6.43
2019-02-22T23:11:57.734Z,6.63
2019-02-22T23:14:31.042Z,7.07
2019-02-22T23:17:04.550Z,7.23
2019-02-22T23:19:39.481Z,8.47
2019-02-22T23:22:12.319Z,8.03
2019-02-22T23:24:45.328Z,6.90
2019-02-22T23:27:18.321Z,3.67
2019-02-22T23:29:51.386Z,1.40
2019-02-22T23:32:24.287Z,1.40
2019-02-22T23:34:57.470Z,1.50
2019-02-22T23:37:30.595Z,2.60
2019-02-22T23:40:05.245Z,1.47
2019-02-22T23:42:38.286Z,1.80
2019-02-22T23:45:11.296Z,1.60
2019-02-22T23:47:44.243Z,1.47
2019-02-22T23:50:18.535Z,4.60
2019-02-22T23:52:51.321Z,1.50
2019-02-22T23:55:24.480Z,1.80
2019-02-22T23:57:57.649Z,1.60
